Time;durP1;ratioP1;P1;durP2;ratioP2;P2;SDS_P1;SDS_P2;PMS_P1;PMS_P2;Temp;Humidity;BMP_temperature;BMP_pressure;BME280_temperature;BME280_humidity;BME280_pressure;Samples;Min_cycle;Max_cycle;Signal;HPM_P1;HPM_P2
2022/04/18 00:02:22;;;;;;;2.80;2.05;;;;;;;;;;4955545;28;20037;-73
2022/04/18 00:04:49;;;;;;;3.30;2.08;;;;;;;;;;4968821;28;20510;-73
2022/04/18 00:07:15;;;;;;;4.35;1.60;;;;;;;;;;4969949;28;20015;-74
2022/04/18 00:09:42;;;;;;;3.85;1.77;;;;;;;;;;4972228;28;20035;-74
2022/04/18 00:12:08;;;;;;;3.17;2.22;;;;;;;;;;4969355;28;20018;-73
2022/04/18 00:14:35;;;;;;;3.78;2.20;;;;;;;;;;4968713;28;20045;-73
2022/04/18 00:17:01;;;;;;;2.30;1.75;;;;;;;;;;4968554;28;20031;-73
2022/04/18 00:19:28;;;;;;;2.03;1.73;;;;;;;;;;4968507;28;20027;-73
2022/04/18 00:21:54;;;;;;;3.47;1.80;;;;;;;;;;4972634;28;20026;-74
2022/04/18 00:24:21;;;;;;;2.00;1.80;;;;;;;;;;4969597;28;20041;-73
2022/04/18 00:26:48;;;;;;;3.03;2.15;;;;;;;;;;4968712;28;20029;-73
2022/04/18 00:29:14;;;;;;;3.28;2.00;;;;;;;;;;4968471;28;20459;-73
2022/04/18 00:31:41;;;;;;;3.45;1.90;;;;;;;;;;4968410;28;20027;-73
2022/04/18 00:34:07;;;;;;;1.77;1.40;;;;;;;;;;4970756;28;20026;-73
2022/04/18 00:36:34;;;;;;;2.95;1.88;;;;;;;;;;4970732;28;20030;-74
2022/04/18 00:39:00;;;;;;;2.88;2.42;;;;;;;;;;4968723;28;20057;-74
2022/04/18 00:41:26;;;;;;;3.20;1.70;;;;;;;;;;4965524;28;20400;-73
2022/04/18 00:43:53;;;;;;;2.63;2.00;;;;;;;;;;4968376;28;20389;-74
2022/04/18 00:46:20;;;;;;;2.83;1.90;;;;;;;;;;4969123;28;20019;-74
2022/04/18 00:48:47;;;;;;;2.97;1.90;;;;;;;;;;4972241;28;20373;-73
2022/04/18 00:51:15;;;;;;;2.05;1.88;;;;;;;;;;4968590;28;20023;-73
2022/04/18 00:53:42;;;;;;;2.95;1.98;;;;;;;;;;4968271;28;20518;-73
2022/04/18 00:56:10;;;;;;;2.83;2.05;;;;;;;;;;4968178;28;20407;-73
2022/04/18 00:58:37;;;;;;;3.17;2.03;;;;;;;;;;4968171;28;20049;-73
2022/04/18 01:01:04;;;;;;;3.60;2.00;;;;;;;;;;4971254;28;20025;-73
2022/04/18 01:03:33;;;;;;;24.73;2.72;;;;;;;;;;4969928;28;20505;-74
2022/04/18 01:06:00;;;;;;;4.30;1.98;;;;;;;;;;4968541;28;20031;-73
2022/04/18 01:08:27;;;;;;;3.00;2.10;;;;;;;;;;4968144;28;20033;-74
2022/04/18 01:10:54;;;;;;;3.38;2.00;;;;;;;;;;4968056;28;20031;-74
2022/04/18 01:13:21;;;;;;;4.68;2.15;;;;;;;;;;4968716;28;20034;-73
2022/04/18 01:15:51;;;;;;;2.85;1.98;;;;;;;;;;4975620;28;20031;-74
2022/04/18 01:18:18;;;;;;;3.50;1.80;;;;;;;;;;4972513;28;20045;-73
2022/04/18 01:20:44;;;;;;;7.47;2.13;;;;;;;;;;4971995;28;20029;-73
2022/04/18 01:23:10;;;;;;;3.75;2.00;;;;;;;;;;4971922;28;20037;-73
2022/04/18 01:31:11;;;;;;;2.90;1.95;;;;;;;;;;4916298;29;20456;-73
2022/04/18 01:33:38;;;;;;;3.90;1.75;;;;;;;;;;4916344;29;20048;-74
2022/04/18 01:36:05;;;;;;;2.28;1.80;;;;;;;;;;4916819;29;20028;-73
2022/04/18 01:38:31;;;;;;;3.95;2.05;;;;;;;;;;4897029;29;20049;-73
2022/04/18 01:40:57;;;;;;;3.13;2.17;;;;;;;;;;4909961;29;20040;-73
2022/04/18 01:43:24;;;;;;;2.90;1.92;;;;;;;;;;4916017;29;20508;-73
2022/04/18 01:45:50;;;;;;;2.45;1.63;;;;;;;;;;4916382;29;20515;-73
2022/04/18 01:48:16;;;;;;;6.03;2.60;;;;;;;;;;4916226;29;20047;-73
2022/04/18 01:50:43;;;;;;;3.15;2.17;;;;;;;;;;4916147;29;20028;-73
2022/04/18 01:53:09;;;;;;;2.35;2.00;;;;;;;;;;4916169;29;20048;-73
2022/04/18 01:55:35;;;;;;;2.60;2.03;;;;;;;;;;4916065;29;20021;-73
2022/04/18 01:58:05;;;;;;;4.78;2.28;;;;;;;;;;4915979;29;20040;-73
2022/04/18 02:00:32;;;;;;;3.28;2.10;;;;;;;;;;4916051;29;20032;-73
2022/04/18 02:02:58;;;;;;;3.90;1.73;;;;;;;;;;4915912;29;20036;-73
2022/04/18 02:05:25;;;;;;;2.50;2.25;;;;;;;;;;4943510;28;20035;-73
2022/04/18 02:07:51;;;;;;;2.78;1.70;;;;;;;;;;4970942;28;20021;-73
2022/04/18 02:10:18;;;;;;;1.75;1.65;;;;;;;;;;4971989;28;20031;-73
2022/04/18 02:12:44;;;;;;;2.42;1.70;;;;;;;;;;4974323;28;20022;-73
2022/04/18 02:15:11;;;;;;;4.22;2.20;;;;;;;;;;4971719;28;20034;-73
2022/04/18 02:17:37;;;;;;;3.22;1.80;;;;;;;;;;4970392;28;20423;-73
2022/04/18 02:20:04;;;;;;;4.20;2.10;;;;;;;;;;4970672;28;20495;-73
2022/04/18 02:22:30;;;;;;;3.58;2.10;;;;;;;;;;4970841;28;20019;-73
2022/04/18 02:24:57;;;;;;;5.60;2.10;;;;;;;;;;4974300;28;20514;-73
2022/04/18 02:27:24;;;;;;;2.22;1.83;;;;;;;;;;4971669;28;20030;-73
2022/04/18 02:29:50;;;;;;;3.33;2.10;;;;;;;;;;4970828;28;20058;-73
2022/04/18 02:35:02;;;;;;;3.22;1.98;;;;;;;;;;4970486;28;20053;-73
2022/04/18 02:37:28;;;;;;;3.78;2.20;;;;;;;;;;4970484;28;20015;-73
2022/04/18 02:39:59;;;;;;;6.43;2.00;;;;;;;;;;4974526;28;20423;-73
2022/04/18 02:42:25;;;;;;;2.45;2.15;;;;;;;;;;4971798;28;20062;-73
2022/04/18 02:44:51;;;;;;;8.88;2.83;;;;;;;;;;4960251;28;20046;-73
2022/04/18 02:47:18;;;;;;;3.33;2.20;;;;;;;;;;4969900;28;20519;-73
2022/04/18 02:49:44;;;;;;;3.10;2.05;;;;;;;;;;4970194;28;20404;-73
2022/04/18 02:52:10;;;;;;;5.97;2.00;;;;;;;;;;4972102;28;20040;-73
2022/04/18 02:54:37;;;;;;;2.70;1.90;;;;;;;;;;4972878;28;20518;-73
2022/04/18 02:57:03;;;;;;;2.58;2.20;;;;;;;;;;4970679;28;20043;-73
2022/04/18 02:59:29;;;;;;;3.53;2.33;;;;;;;;;;4969936;28;20049;-73
2022/04/18 03:01:56;;;;;;;3.40;2.47;;;;;;;;;;4969747;28;20554;-73
2022/04/18 03:04:22;;;;;;;2.38;1.98;;;;;;;;;;4970597;28;20065;-73
2022/04/18 03:06:48;;;;;;;4.60;1.95;;;;;;;;;;4974117;28;20385;-73
2022/04/18 03:09:15;;;;;;;2.35;2.13;;;;;;;;;;4970471;28;20101;-73
2022/04/18 03:11:41;;;;;;;3.40;2.13;;;;;;;;;;4969974;28;20031;-73
2022/04/18 03:14:08;;;;;;;2.40;2.20;;;;;;;;;;4969690;28;20488;-73
2022/04/18 03:16:34;;;;;;;6.38;2.22;;;;;;;;;;4969415;28;20035;-73
2022/04/18 03:19:00;;;;;;;2.78;2.20;;;;;;;;;;4972512;28;20035;-73
2022/04/18 03:21:26;;;;;;;2.95;2.33;;;;;;;;;;4971191;28;20027;-73
2022/04/18 03:23:53;;;;;;;5.93;2.45;;;;;;;;;;4973373;28;20407;-73
2022/04/18 03:26:20;;;;;;;7.13;2.50;;;;;;;;;;4969512;28;20026;-73
2022/04/18 03:28:46;;;;;;;3.95;2.05;;;;;;;;;;4969370;28;20096;-73
2022/04/18 03:31:13;;;;;;;4.43;2.20;;;;;;;;;;4970904;28;20409;-73
2022/04/18 03:33:39;;;;;;;2.55;2.13;;;;;;;;;;4972554;28;20030;-73
2022/04/18 03:41:35;;;;;;;4.20;2.50;;;;;;;;;;4969256;28;20035;-73
2022/04/18 03:44:02;;;;;;;4.03;2.28;;;;;;;;;;4968859;28;20033;-73
2022/04/18 03:46:28;;;;;;;3.13;2.40;;;;;;;;;;4969281;28;20027;-73
2022/04/18 03:48:54;;;;;;;4.70;2.40;;;;;;;;;;4973382;28;20034;-73
2022/04/18 03:51:21;;;;;;;8.27;2.40;;;;;;;;;;4970642;28;20035;-73
2022/04/18 03:53:47;;;;;;;2.97;2.45;;;;;;;;;;4973654;28;20518;-73
2022/04/18 03:56:13;;;;;;;2.72;2.30;;;;;;;;;;4968940;28;20443;-74
2022/04/18 03:58:40;;;;;;;3.63;2.05;;;;;;;;;;4968672;28;20041;-73
2022/04/18 04:01:06;;;;;;;3.65;2.10;;;;;;;;;;4971632;28;20023;-73
2022/04/18 04:03:32;;;;;;;2.55;2.08;;;;;;;;;;4971136;28;20402;-73
2022/04/18 04:05:59;;;;;;;2.85;2.08;;;;;;;;;;4969325;28;20034;-73
2022/04/18 04:08:25;;;;;;;3.20;2.38;;;;;;;;;;4968853;28;20046;-73
2022/04/18 04:10:52;;;;;;;4.72;2.50;;;;;;;;;;4968756;28;20407;-73
2022/04/18 04:13:18;;;;;;;2.80;2.35;;;;;;;;;;4969198;28;20025;-73
2022/04/18 04:15:44;;;;;;;4.72;2.50;;;;;;;;;;4972568;28;20027;-73
2022/04/18 04:18:11;;;;;;;4.40;2.70;;;;;;;;;;4969119;28;20031;-73
2022/04/18 04:20:37;;;;;;;5.35;2.47;;;;;;;;;;4968623;28;20073;-73
2022/04/18 04:23:05;;;;;;;6.10;2.50;;;;;;;;;;4968717;28;20023;-73
2022/04/18 04:25:31;;;;;;;3.30;2.42;;;;;;;;;;4968500;28;20027;-73
2022/04/18 04:27:57;;;;;;;3.53;1.98;;;;;;;;;;4970617;28;20029;-74
2022/04/18 04:30:23;;;;;;;3.45;2.38;;;;;;;;;;4969656;28;20051;-73
2022/04/18 04:32:50;;;;;;;6.88;2.67;;;;;;;;;;4971924;28;20033;-73
2022/04/18 04:35:17;;;;;;;6.55;2.65;;;;;;;;;;4968436;28;20118;-73
2022/04/18 04:37:44;;;;;;;3.70;2.70;;;;;;;;;;4968325;28;20388;-73
2022/04/18 04:40:11;;;;;;;4.15;2.80;;;;;;;;;;4970322;28;20030;-73
2022/04/18 04:42:38;;;;;;;3.08;2.47;;;;;;;;;;4971297;28;20015;-73
2022/04/18 04:45:04;;;;;;;4.70;2.80;;;;;;;;;;4968987;28;20031;-73
2022/04/18 04:47:31;;;;;;;5.60;2.83;;;;;;;;;;4968245;28;20031;-73
2022/04/18 04:49:57;;;;;;;5.95;3.15;;;;;;;;;;4968273;28;20022;-73
2022/04/18 04:52:24;;;;;;;5.53;3.00;;;;;;;;;;4968472;28;20031;-73
2022/04/18 04:54:50;;;;;;;5.55;3.25;;;;;;;;;;4955368;28;20081;-73
2022/04/18 04:57:16;;;;;;;6.30;3.13;;;;;;;;;;4968562;28;20031;-73
2022/04/18 04:59:43;;;;;;;5.68;3.20;;;;;;;;;;4968069;28;20097;-73
2022/04/18 05:02:09;;;;;;;6.43;3.17;;;;;;;;;;4968414;28;20039;-73
2022/04/18 05:04:35;;;;;;;4.45;3.10;;;;;;;;;;4968203;28;20485;-73
2022/04/18 05:07:02;;;;;;;3.78;2.63;;;;;;;;;;4971184;28;20023;-73
2022/04/18 05:09:28;;;;;;;9.30;3.40;;;;;;;;;;4970029;28;20041;-73
2022/04/18 05:11:54;;;;;;;7.60;3.17;;;;;;;;;;4971743;28;20031;-73
2022/04/18 05:14:21;;;;;;;5.10;2.83;;;;;;;;;;4968058;28;20397;-73
2022/04/18 05:16:48;;;;;;;4.05;3.28;;;;;;;;;;4968059;28;20021;-73
2022/04/18 05:19:14;;;;;;;3.67;2.72;;;;;;;;;;4969237;28;20093;-73
2022/04/18 05:21:40;;;;;;;4.05;2.78;;;;;;;;;;4971101;28;20395;-73
2022/04/18 05:24:07;;;;;;;5.60;3.20;;;;;;;;;;4968838;28;20023;-73
2022/04/18 05:26:33;;;;;;;4.35;3.33;;;;;;;;;;4967655;28;20015;-73
2022/04/18 05:28:59;;;;;;;7.75;3.40;;;;;;;;;;4967610;28;20050;-73
2022/04/18 05:31:26;;;;;;;5.13;3.38;;;;;;;;;;4968126;28;20036;-73
2022/04/18 05:33:52;;;;;;;4.50;2.88;;;;;;;;;;4972298;28;20542;-73
2022/04/18 05:36:19;;;;;;;5.55;2.53;;;;;;;;;;4968726;28;20472;-73
2022/04/18 05:38:45;;;;;;;3.15;2.42;;;;;;;;;;4967616;28;20045;-73
2022/04/18 05:41:12;;;;;;;3.80;2.60;;;;;;;;;;4967734;28;20027;-73
2022/04/18 05:43:38;;;;;;;5.60;2.55;;;;;;;;;;4967885;28;20020;-73
2022/04/18 05:46:04;;;;;;;3.13;2.50;;;;;;;;;;4970448;28;20026;-73
2022/04/18 05:48:31;;;;;;;7.07;3.30;;;;;;;;;;4969700;28;20428;-73
2022/04/18 05:50:57;;;;;;;4.15;2.95;;;;;;;;;;4968158;28;20543;-73
2022/04/18 05:53:27;;;;;;;5.22;2.92;;;;;;;;;;4967690;28;20034;-73
2022/04/18 05:55:54;;;;;;;4.70;2.80;;;;;;;;;;4967437;28;20407;-73
2022/04/18 05:58:20;;;;;;;4.40;3.10;;;;;;;;;;4968271;28;20077;-73
2022/04/18 06:00:47;;;;;;;5.35;4.20;;;;;;;;;;4973339;28;20130;-73
2022/04/18 06:03:13;;;;;;;8.15;4.07;;;;;;;;;;4971707;28;20494;-73
2022/04/18 06:05:40;;;;;;;4.32;3.65;;;;;;;;;;4971441;28;20030;-73
2022/04/18 06:08:06;;;;;;;5.20;2.45;;;;;;;;;;4970996;28;20053;-73
2022/04/18 06:10:33;;;;;;;3.78;2.50;;;;;;;;;;4970573;28;20015;-73
2022/04/18 06:12:59;;;;;;;6.45;3.10;;;;;;;;;;4974693;28;20030;-73
2022/04/18 06:15:26;;;;;;;4.10;2.78;;;;;;;;;;4974225;28;20034;-73
2022/04/18 06:17:52;;;;;;;3.15;2.50;;;;;;;;;;4971126;28;20037;-73
2022/04/18 06:20:19;;;;;;;5.13;3.10;;;;;;;;;;4970763;28;20381;-74
2022/04/18 06:22:45;;;;;;;4.80;2.65;;;;;;;;;;4970836;28;20484;-73
2022/04/18 06:25:12;;;;;;;4.80;2.95;;;;;;;;;;4972291;28;20022;-73
2022/04/18 06:27:38;;;;;;;3.50;2.33;;;;;;;;;;4973823;28;20031;-73
2022/04/18 06:30:04;;;;;;;4.28;3.05;;;;;;;;;;4971027;28;20527;-73
2022/04/18 06:32:35;;;;;;;11.68;2.90;;;;;;;;;;4970800;28;20085;-73
2022/04/18 06:35:01;;;;;;;9.77;2.90;;;;;;;;;;4970532;28;20023;-74
2022/04/18 06:37:28;;;;;;;11.45;3.20;;;;;;;;;;4970377;28;20031;-73
2022/04/18 06:39:55;;;;;;;8.80;3.20;;;;;;;;;;4974817;28;20041;-73
2022/04/18 06:42:21;;;;;;;10.40;3.47;;;;;;;;;;4971577;28;20025;-74
2022/04/18 06:44:47;;;;;;;5.38;3.45;;;;;;;;;;4970771;28;20034;-73
2022/04/18 06:47:14;;;;;;;6.47;3.40;;;;;;;;;;4970569;28;20031;-73
2022/04/18 06:49:41;;;;;;;6.32;3.60;;;;;;;;;;4970336;28;20033;-73
2022/04/18 06:52:07;;;;;;;4.43;3.60;;;;;;;;;;4972363;28;20041;-74
2022/04/18 06:54:34;;;;;;;5.32;3.50;;;;;;;;;;4972506;28;20518;-74
2022/04/18 06:57:00;;;;;;;6.10;3.83;;;;;;;;;;4970526;28;20030;-74
2022/04/18 06:59:27;;;;;;;4.88;3.75;;;;;;;;;;4969998;28;20484;-73
2022/04/18 07:01:54;;;;;;;7.90;3.75;;;;;;;;;;4970023;28;20023;-74
2022/04/18 07:04:21;;;;;;;4.50;3.63;;;;;;;;;;4970784;28;20507;-74
2022/04/18 07:06:47;;;;;;;5.28;3.58;;;;;;;;;;4973816;28;20030;-74
2022/04/18 07:09:14;;;;;;;7.10;4.03;;;;;;;;;;4970735;28;20023;-74
2022/04/18 07:11:42;;;;;;;7.15;3.33;;;;;;;;;;4968829;28;20033;-74
2022/04/18 07:14:08;;;;;;;6.28;3.85;;;;;;;;;;4969803;28;20025;-74
2022/04/18 07:16:35;;;;;;;5.90;3.88;;;;;;;;;;4969794;28;20030;-74
2022/04/18 07:19:01;;;;;;;5.95;3.75;;;;;;;;;;4972876;28;20041;-74
2022/04/18 07:21:28;;;;;;;7.00;3.50;;;;;;;;;;4970696;28;20031;-74
2022/04/18 07:23:54;;;;;;;8.15;3.85;;;;;;;;;;4974439;28;20037;-74
2022/04/18 07:26:21;;;;;;;4.68;3.40;;;;;;;;;;4969573;28;20049;-74
2022/04/18 07:28:47;;;;;;;5.65;3.60;;;;;;;;;;4969434;28;20053;-74
2022/04/18 07:31:14;;;;;;;6.03;3.78;;;;;;;;;;4970921;28;20451;-74
2022/04/18 07:33:41;;;;;;;6.22;3.90;;;;;;;;;;4972822;28;20037;-74
2022/04/18 07:36:07;;;;;;;5.32;3.47;;;;;;;;;;4969558;28;20035;-74
2022/04/18 07:38:49;;;;;;;5.57;4.10;;;;;;;;;;4969337;28;20403;-74
2022/04/18 07:41:16;;;;;;;4.15;3.75;;;;;;;;;;4969432;28;20476;-74
2022/04/18 07:43:42;;;;;;;5.55;3.97;;;;;;;;;;4969315;28;20077;-74
2022/04/18 07:46:09;;;;;;;5.63;4.38;;;;;;;;;;4971382;28;20023;-74
2022/04/18 07:48:36;;;;;;;5.70;3.90;;;;;;;;;;4956536;28;20033;-74
2022/04/18 07:53:47;;;;;;;8.73;4.32;;;;;;;;;;4969352;28;20505;-74
2022/04/18 07:56:13;;;;;;;5.40;4.50;;;;;;;;;;4969106;28;20487;-74
2022/04/18 07:58:40;;;;;;;5.72;3.92;;;;;;;;;;4968968;28;20053;-74
2022/04/18 08:01:06;;;;;;;6.78;4.00;;;;;;;;;;4954243;28;20023;-74
2022/04/18 08:03:34;;;;;;;6.30;4.25;;;;;;;;;;4970867;28;20039;-74
2022/04/18 08:06:00;;;;;;;8.45;4.00;;;;;;;;;;4969006;28;20015;-74
2022/04/18 08:08:27;;;;;;;5.43;4.18;;;;;;;;;;4969146;28;20031;-74
2022/04/18 08:10:53;;;;;;;6.97;4.20;;;;;;;;;;4968902;28;20037;-74
2022/04/18 08:13:19;;;;;;;6.50;4.82;;;;;;;;;;4969789;28;20031;-74
2022/04/18 08:15:46;;;;;;;5.85;5.18;;;;;;;;;;4972576;28;20034;-74
2022/04/18 08:18:12;;;;;;;6.70;5.07;;;;;;;;;;4969221;28;20035;-74
2022/04/18 08:20:38;;;;;;;6.15;4.85;;;;;;;;;;4968166;28;20027;-74
2022/04/18 08:23:05;;;;;;;9.15;5.35;;;;;;;;;;4968357;28;20031;-74
2022/04/18 08:25:31;;;;;;;6.68;5.40;;;;;;;;;;4968536;28;20455;-74
2022/04/18 08:27:58;;;;;;;6.57;5.35;;;;;;;;;;4972282;28;20411;-74
2022/04/18 08:30:24;;;;;;;10.50;6.03;;;;;;;;;;4969605;28;20119;-74
2022/04/18 08:32:50;;;;;;;8.82;5.60;;;;;;;;;;4968363;28;20104;-74
2022/04/18 08:35:18;;;;;;;11.13;5.70;;;;;;;;;;4968125;28;20023;-74
2022/04/18 08:37:44;;;;;;;8.27;5.47;;;;;;;;;;4968367;28;20023;-75
2022/04/18 08:40:11;;;;;;;6.82;5.68;;;;;;;;;;4970719;28;20034;-74
2022/04/18 08:42:38;;;;;;;7.38;5.88;;;;;;;;;;4970958;28;20085;-74
2022/04/18 08:45:07;;;;;;;7.65;6.13;;;;;;;;;;4968946;28;20041;-74
2022/04/18 08:53:03;;;;;;;8.65;6.32;;;;;;;;;;4968223;28;20439;-74
2022/04/18 08:55:31;;;;;;;6.75;5.72;;;;;;;;;;4968182;28;20027;-75
2022/04/18 08:57:57;;;;;;;8.52;5.63;;;;;;;;;;4972143;28;20043;-74
2022/04/18 09:00:24;;;;;;;7.88;5.90;;;;;;;;;;4969205;28;20049;-74
2022/04/18 09:02:50;;;;;;;8.45;6.50;;;;;;;;;;4968468;28;20031;-74
2022/04/18 09:05:16;;;;;;;6.88;5.85;;;;;;;;;;4939399;28;20031;-74
2022/04/18 09:07:44;;;;;;;7.90;5.82;;;;;;;;;;4939244;28;20023;-74
2022/04/18 09:10:13;;;;;;;7.57;6.13;;;;;;;;;;4970149;28;20037;-74
2022/04/18 09:12:43;;;;;;;8.25;6.10;;;;;;;;;;4971217;28;20030;-74
2022/04/18 09:15:09;;;;;;;7.50;6.00;;;;;;;;;;4968706;28;20049;-74
2022/04/18 09:17:37;;;;;;;7.43;5.90;;;;;;;;;;4967974;28;20037;-74
2022/04/18 09:20:11;;;;;;;6.85;5.30;;;;;;;;;;4967949;28;20381;-74
2022/04/18 09:22:45;;;;;;;8.27;6.45;;;;;;;;;;4967895;28;20038;-74
2022/04/18 09:25:14;;;;;;;7.25;5.38;;;;;;;;;;4970068;28;20502;-74
2022/04/18 09:27:40;;;;;;;7.93;5.13;;;;;;;;;;4970902;28;20077;-75
2022/04/18 09:30:08;;;;;;;7.13;5.60;;;;;;;;;;4968352;28;20055;-75
2022/04/18 09:32:34;;;;;;;7.72;5.47;;;;;;;;;;4967802;28;20033;-75
2022/04/18 09:35:02;;;;;;;7.28;5.38;;;;;;;;;;4968610;28;20026;-75
2022/04/18 09:37:29;;;;;;;7.68;5.40;;;;;;;;;;4971704;28;20031;-75
2022/04/18 09:39:56;;;;;;;9.52;5.18;;;;;;;;;;4975409;28;20077;-75
2022/04/18 09:42:23;;;;;;;6.32;4.45;;;;;;;;;;4972673;28;20038;-75
2022/04/18 09:44:50;;;;;;;6.40;4.53;;;;;;;;;;4971361;28;20594;-75
2022/04/18 09:47:20;;;;;;;6.93;4.50;;;;;;;;;;4967014;28;20069;-75
2022/04/18 09:49:47;;;;;;;5.95;5.35;;;;;;;;;;4958283;28;20055;-75
2022/04/18 09:52:16;;;;;;;5.45;4.70;;;;;;;;;;4972966;28;20050;-75
2022/04/18 09:54:45;;;;;;;8.30;5.35;;;;;;;;;;4974732;28;20033;-75
2022/04/18 09:57:11;;;;;;;6.53;4.82;;;;;;;;;;4971722;28;20030;-75
2022/04/18 09:59:39;;;;;;;5.93;5.22;;;;;;;;;;4958002;28;20500;-73
2022/04/18 10:02:05;;;;;;;6.90;4.90;;;;;;;;;;4958107;28;20029;-73
2022/04/18 10:04:32;;;;;;;6.68;5.30;;;;;;;;;;4971254;28;20027;-72
2022/04/18 10:06:59;;;;;;;7.57;5.20;;;;;;;;;;4975218;28;20477;-73
2022/04/18 10:09:26;;;;;;;8.30;5.35;;;;;;;;;;4972053;28;20049;-73
2022/04/18 10:11:52;;;;;;;7.93;4.88;;;;;;;;;;4971434;28;20023;-73
2022/04/18 10:14:19;;;;;;;15.30;5.13;;;;;;;;;;4971082;28;20041;-73
2022/04/18 10:16:46;;;;;;;6.03;4.45;;;;;;;;;;4970540;28;20497;-73
2022/04/18 10:19:38;;;;;;;7.30;4.80;;;;;;;;;;4972769;28;20029;-73
2022/04/18 10:22:10;;;;;;;6.95;4.97;;;;;;;;;;4959862;28;20023;-73
2022/04/18 10:24:46;;;;;;;5.30;4.80;;;;;;;;;;4973140;28;20045;-73
2022/04/18 10:27:12;;;;;;;7.78;5.20;;;;;;;;;;4974643;28;20043;-73
2022/04/18 10:29:49;;;;;;;5.22;4.72;;;;;;;;;;4970315;28;20057;-73
2022/04/18 10:32:18;;;;;;;7.95;4.70;;;;;;;;;;4970543;28;20043;-74
2022/04/18 10:34:49;;;;;;;5.13;4.00;;;;;;;;;;4970606;28;20023;-73
2022/04/18 10:37:15;;;;;;;;;;;;;;;;;;4972451;28;20463;-74
2022/04/18 10:39:41;;;;;;;6.57;4.97;;;;;;;;;;4973647;28;19914;-74
2022/04/18 10:42:24;;;;;;;5.68;4.70;;;;;;;;;;4970935;28;20023;-74
2022/04/18 10:44:59;;;;;;;10.10;4.78;;;;;;;;;;4974312;28;20047;-74
2022/04/18 10:47:26;;;;;;;7.78;4.43;;;;;;;;;;4970080;28;20018;-74
2022/04/18 10:50:11;;;;;;;7.03;4.38;;;;;;;;;;4970250;28;20019;-74
2022/04/18 10:52:38;;;;;;;7.10;3.97;;;;;;;;;;4970360;28;20023;-74
2022/04/18 10:55:05;;;;;;;5.75;4.57;;;;;;;;;;4973483;28;20022;-74
2022/04/18 10:57:31;;;;;;;5.03;3.78;;;;;;;;;;4973633;28;20086;-75
2022/04/18 10:59:57;;;;;;;6.30;3.95;;;;;;;;;;4970194;28;20038;-74
2022/04/18 11:02:50;;;;;;;5.60;3.88;;;;;;;;;;4970118;28;20500;-75
2022/04/18 11:05:16;;;;;;;5.20;3.78;;;;;;;;;;4968055;28;20512;-74
2022/04/18 11:07:44;;;;;;;9.65;3.92;;;;;;;;;;4956158;28;20030;-74
2022/04/18 11:10:23;;;;;;;7.30;4.03;;;;;;;;;;4972001;28;20035;-74
2022/04/18 11:13:02;;;;;;;4.40;3.90;;;;;;;;;;4974318;28;20027;-75
2022/04/18 11:15:28;;;;;;;4.10;3.47;;;;;;;;;;4971383;28;20053;-74
2022/04/18 11:18:00;;;;;;;6.63;3.60;;;;;;;;;;4970054;28;20039;-75
2022/04/18 11:20:27;;;;;;;5.60;3.63;;;;;;;;;;4969655;28;20037;-75
2022/04/18 11:23:13;;;;;;;4.20;3.40;;;;;;;;;;4969591;28;20033;-75
2022/04/18 11:25:58;;;;;;;5.93;3.53;;;;;;;;;;4969560;28;20033;-75
2022/04/18 11:28:30;;;;;;;7.57;3.88;;;;;;;;;;4969578;28;20026;-75
2022/04/18 11:30:57;;;;;;;6.65;3.92;;;;;;;;;;4942031;28;20047;-75
2022/04/18 11:33:23;;;;;;;7.53;3.70;;;;;;;;;;4974595;28;20019;-75
2022/04/18 11:35:50;;;;;;;4.20;3.80;;;;;;;;;;4973797;28;20035;-75
2022/04/18 11:38:16;;;;;;;13.18;4.15;;;;;;;;;;4969459;28;20031;-75
2022/04/18 11:40:44;;;;;;;5.05;3.60;;;;;;;;;;4969284;28;20035;-75
2022/04/18 11:43:15;;;;;;;6.57;3.70;;;;;;;;;;4971480;28;20027;-75
2022/04/18 11:45:41;;;;;;;4.22;3.83;;;;;;;;;;4972455;28;20018;-75
2022/04/18 11:48:08;;;;;;;4.03;3.65;;;;;;;;;;4969717;28;20027;-75
2022/04/18 11:50:37;;;;;;;5.30;3.40;;;;;;;;;;4969483;28;20031;-75
2022/04/18 11:53:07;;;;;;;4.20;3.42;;;;;;;;;;4969184;28;20038;-75
2022/04/18 11:55:48;;;;;;;8.00;3.70;;;;;;;;;;4956295;28;20031;-75
2022/04/18 11:58:19;;;;;;;4.15;3.17;;;;;;;;;;4969562;28;20402;-75
2022/04/18 12:09:01;;;;;;;3.47;3.17;;;;;;;;;;4973427;28;20030;-74
2022/04/18 12:11:33;;;;;;;3.67;3.10;;;;;;;;;;4968476;28;20518;-74
2022/04/18 12:14:00;;;;;;;3.53;3.22;;;;;;;;;;4969037;28;20034;-74
2022/04/18 12:16:26;;;;;;;4.00;3.22;;;;;;;;;;4968888;28;20031;-75
2022/04/18 12:18:57;;;;;;;4.53;3.70;;;;;;;;;;4957769;28;20037;-75
2022/04/18 12:21:26;;;;;;;4.07;3.67;;;;;;;;;;4969685;28;20033;-75
2022/04/18 12:23:54;;;;;;;3.63;3.28;;;;;;;;;;4968627;28;20037;-74
2022/04/18 12:26:24;;;;;;;3.97;3.55;;;;;;;;;;4968280;28;20029;-75
2022/04/18 12:28:51;;;;;;;4.73;3.40;;;;;;;;;;4968482;28;20054;-75
2022/04/18 12:31:17;;;;;;;5.38;4.50;;;;;;;;;;4969791;28;20329;-75
2022/04/18 12:33:48;;;;;;;5.47;3.97;;;;;;;;;;4972095;28;20038;-74
2022/04/18 12:36:33;;;;;;;6.57;3.47;;;;;;;;;;4969160;28;20029;-75
2022/04/18 12:39:00;;;;;;;2.85;2.65;;;;;;;;;;4973226;28;20039;-74
2022/04/18 12:41:30;;;;;;;4.10;2.92;;;;;;;;;;4968015;28;20019;-74
2022/04/18 12:43:57;;;;;;;3.85;3.10;;;;;;;;;;4968464;28;20025;-74
2022/04/18 12:46:27;;;;;;;3.42;3.13;;;;;;;;;;4968985;28;20085;-75
2022/04/18 12:48:53;;;;;;;3.63;3.08;;;;;;;;;;4957402;28;20472;-74
2022/04/18 12:51:30;;;;;;;5.88;4.40;;;;;;;;;;4969039;28;20033;-74
2022/04/18 12:53:56;;;;;;;3.47;3.10;;;;;;;;;;4972913;28;20035;-74
2022/04/18 12:56:23;;;;;;;9.35;3.33;;;;;;;;;;4967988;28;20011;-75
2022/04/18 12:58:52;;;;;;;4.30;2.78;;;;;;;;;;4968024;28;20042;-75
2022/04/18 13:01:26;;;;;;;5.30;2.80;;;;;;;;;;4969383;28;20562;-74
2022/04/18 13:03:53;;;;;;;4.10;3.00;;;;;;;;;;4972737;28;20019;-75
2022/04/18 13:06:23;;;;;;;3.70;2.90;;;;;;;;;;4969087;28;20059;-74
2022/04/18 13:08:50;;;;;;;3.97;3.15;;;;;;;;;;4968382;28;20034;-74
2022/04/18 13:11:20;;;;;;;3.05;2.75;;;;;;;;;;4971985;28;20031;-74
2022/04/18 13:13:46;;;;;;;4.18;2.50;;;;;;;;;;4972115;28;20028;-74
2022/04/18 13:16:21;;;;;;;4.35;3.00;;;;;;;;;;4973990;28;20030;-74
2022/04/18 13:18:56;;;;;;;3.97;2.67;;;;;;;;;;4975866;28;20031;-74
2022/04/18 13:21:23;;;;;;;3.05;2.70;;;;;;;;;;4972897;28;20509;-74
2022/04/18 13:23:49;;;;;;;4.50;2.80;;;;;;;;;;4971858;28;20030;-74
2022/04/18 13:26:15;;;;;;;4.47;3.22;;;;;;;;;;4972142;28;20035;-74
2022/04/18 13:28:41;;;;;;;4.90;2.67;;;;;;;;;;4971677;28;20510;-74
2022/04/18 13:31:08;;;;;;;4.07;2.97;;;;;;;;;;4974415;28;20045;-74
2022/04/18 13:33:34;;;;;;;4.95;3.20;;;;;;;;;;4973546;28;20033;-74
2022/04/18 13:38:45;;;;;;;3.58;2.65;;;;;;;;;;4971066;28;20037;-74
2022/04/18 13:41:12;;;;;;;4.85;2.85;;;;;;;;;;4974596;28;20035;-74
2022/04/18 13:43:38;;;;;;;3.30;3.00;;;;;;;;;;4971537;28;20400;-74
2022/04/18 13:46:04;;;;;;;3.38;2.80;;;;;;;;;;4974420;28;20027;-74
2022/04/18 13:48:31;;;;;;;3.63;2.70;;;;;;;;;;4973372;28;20034;-74
2022/04/18 13:50:57;;;;;;;5.88;3.28;;;;;;;;;;4975364;28;20436;-73
2022/04/18 13:53:23;;;;;;;3.67;2.67;;;;;;;;;;4971047;28;20027;-74
2022/04/18 13:55:50;;;;;;;4.70;3.10;;;;;;;;;;4970793;28;20466;-74
2022/04/18 13:58:16;;;;;;;6.05;2.90;;;;;;;;;;4972867;28;20035;-74
2022/04/18 14:00:46;;;;;;;4.15;2.95;;;;;;;;;;4974272;28;20030;-73
2022/04/18 14:03:12;;;;;;;3.63;2.95;;;;;;;;;;4971583;28;20023;-74
2022/04/18 14:05:39;;;;;;;4.88;2.90;;;;;;;;;;4971171;28;20037;-74
2022/04/18 14:08:06;;;;;;;4.47;2.75;;;;;;;;;;4970835;28;20065;-74
2022/04/18 14:10:32;;;;;;;5.97;2.88;;;;;;;;;;4970871;28;20035;-74
2022/04/18 14:12:58;;;;;;;4.55;2.90;;;;;;;;;;4974796;28;20026;-74
2022/04/18 14:20:55;;;;;;;7.43;3.28;;;;;;;;;;4970474;28;20077;-74
2022/04/18 14:23:21;;;;;;;3.53;2.85;;;;;;;;;;4970331;28;20011;-75
2022/04/18 14:25:48;;;;;;;4.15;2.75;;;;;;;;;;4971005;28;20046;-74
2022/04/18 14:28:14;;;;;;;3.38;2.90;;;;;;;;;;4972402;28;20023;-74
2022/04/18 14:30:41;;;;;;;4.60;3.05;;;;;;;;;;4973373;28;20046;-74
2022/04/18 14:33:08;;;;;;;3.10;2.80;;;;;;;;;;4971252;28;20037;-74
2022/04/18 14:35:34;;;;;;;4.70;2.50;;;;;;;;;;4970776;28;20029;-74
2022/04/18 14:38:02;;;;;;;4.97;2.88;;;;;;;;;;4969898;28;20057;-74
2022/04/18 14:40:29;;;;;;;6.30;2.90;;;;;;;;;;4952780;28;20023;-74
2022/04/18 14:42:55;;;;;;;5.65;2.97;;;;;;;;;;4974318;28;20027;-74
2022/04/18 14:45:21;;;;;;;5.00;2.90;;;;;;;;;;4971117;28;20041;-74
2022/04/18 14:47:48;;;;;;;4.88;3.00;;;;;;;;;;4970371;28;20030;-74
2022/04/18 14:50:14;;;;;;;6.97;2.90;;;;;;;;;;4970172;28;20041;-74
2022/04/18 14:52:40;;;;;;;5.93;3.00;;;;;;;;;;4970065;28;20037;-74
2022/04/18 14:55:07;;;;;;;4.25;2.40;;;;;;;;;;4973180;28;20037;-74
2022/04/18 14:57:33;;;;;;;5.13;2.50;;;;;;;;;;4972201;28;20027;-74
2022/04/18 15:00:00;;;;;;;8.05;2.63;;;;;;;;;;4970400;28;20065;-74
2022/04/18 15:02:27;;;;;;;3.20;2.72;;;;;;;;;;4970046;28;20477;-74
2022/04/18 15:04:53;;;;;;;5.75;2.67;;;;;;;;;;4969678;28;20496;-74
2022/04/18 15:07:19;;;;;;;5.78;3.08;;;;;;;;;;4971499;28;20026;-74
2022/04/18 15:09:46;;;;;;;3.88;2.55;;;;;;;;;;4973746;28;20045;-74
2022/04/18 15:12:12;;;;;;;4.72;2.50;;;;;;;;;;4970720;28;20021;-74
2022/04/18 15:14:39;;;;;;;4.25;2.40;;;;;;;;;;4969681;28;20037;-74
2022/04/18 15:17:06;;;;;;;2.53;2.30;;;;;;;;;;4970140;28;20026;-74
2022/04/18 15:19:33;;;;;;;2.30;2.00;;;;;;;;;;4969155;28;20492;-74
2022/04/18 15:22:01;;;;;;;3.58;2.17;;;;;;;;;;4973543;28;20019;-74
2022/04/18 15:24:27;;;;;;;4.43;2.65;;;;;;;;;;4971090;28;20026;-74